Time;durP1;ratioP1;P1;durP2;ratioP2;P2;SDS_P1;SDS_P2;PMS_P1;PMS_P2;Temp;Humidity;BMP_temperature;BMP_pressure;BME280_temperature;BME280_humidity;BME280_pressure;Samples;Min_cycle;Max_cycle;Signal;HPM_P1;HPM_P2
2022/03/23 00:03:37;;;;;;;5.07;4.03;;;;;;;4.96;65.72;99693.75;10428484;28;20054;-60
2022/03/23 00:08:40;;;;;;;7.75;4.15;;;;;;;4.89;67.32;99694.09;10425679;28;20052;-58
2022/03/23 00:13:46;;;;;;;4.30;3.80;;;;;;;4.83;67.73;99697.16;10422970;28;20053;-53
2022/03/23 00:18:50;;;;;;;6.00;3.97;;;;;;;4.81;68.24;99692.88;10427559;28;20052;-54
2022/03/23 00:23:53;;;;;;;4.70;4.10;;;;;;;4.75;68.90;99704.78;10425365;28;20124;-57
2022/03/23 00:28:56;;;;;;;5.22;3.85;;;;;;;4.68;69.95;99703.41;10431386;28;20115;-57
2022/03/23 00:34:00;;;;;;;5.93;3.90;;;;;;;4.57;70.07;99694.25;10440184;28;20049;-53
2022/03/23 00:39:04;;;;;;;4.80;4.30;;;;;;;4.45;73.75;99697.63;10429371;28;20101;-54
2022/03/23 00:44:08;;;;;;;5.95;3.92;;;;;;;4.34;77.80;99690.28;10420327;28;20042;-63
2022/03/23 00:49:34;;;;;;;4.97;3.83;;;;;;;4.25;83.41;99691.66;10454441;28;20032;-63
2022/03/23 00:54:38;;;;;;;4.65;3.90;;;;;;;4.15;83.42;99679.81;10452501;28;20033;-59
2022/03/23 00:59:41;;;;;;;6.20;4.05;;;;;;;4.14;83.55;99688.78;10455629;28;20065;-62
2022/03/23 01:04:47;;;;;;;5.70;3.78;;;;;;;4.13;83.43;99684.38;10447966;28;20042;-56
2022/03/23 01:09:50;;;;;;;5.72;3.97;;;;;;;4.17;83.21;99683.25;10405165;28;20108;-54
2022/03/23 01:14:53;;;;;;;5.25;4.00;;;;;;;4.15;80.02;99686.00;10404282;28;20140;-63
2022/03/23 01:19:58;;;;;;;6.47;4.00;;;;;;;4.16;81.60;99684.22;10408008;28;20052;-56
2022/03/23 01:25:03;;;;;;;4.68;3.65;;;;;;;4.12;82.76;99685.31;10406036;28;20130;-59
2022/03/23 01:30:11;;;;;;;5.25;3.92;;;;;;;4.07;82.85;99687.38;10424130;28;20514;-56
2022/03/23 01:35:16;;;;;;;6.45;3.97;;;;;;;4.01;82.77;99685.94;10420169;28;20095;-55
2022/03/23 01:40:22;;;;;;;6.00;4.00;;;;;;;3.88;88.39;99683.13;10420825;28;20551;-54
2022/03/23 01:45:27;;;;;;;5.38;4.40;;;;;;;3.78;88.94;99677.44;10416571;28;20148;-56
2022/03/23 01:50:31;;;;;;;4.20;3.80;;;;;;;3.73;88.08;99675.97;10403144;28;20084;-60
2022/03/23 01:55:34;;;;;;;5.18;4.07;;;;;;;3.63;89.56;99668.50;10399815;28;20052;-54
2022/03/23 02:00:39;;;;;;;5.88;4.18;;;;;;;3.50;92.76;99662.16;10404612;28;20041;-55
2022/03/23 02:05:44;;;;;;;4.32;3.92;;;;;;;3.39;97.09;99663.59;10398064;28;20563;-55
2022/03/23 02:10:47;;;;;;;5.18;4.03;;;;;;;3.28;98.17;99665.16;10398775;28;20045;-51
2022/03/23 02:15:52;;;;;;;7.45;4.10;;;;;;;3.18;99.96;99662.13;10359302;28;20058;-54
2022/03/23 02:20:57;;;;;;;5.18;4.32;;;;;;;3.13;100.00;99661.50;10377822;28;20092;-57
2022/03/23 02:26:03;;;;;;;5.05;3.97;;;;;;;3.07;100.00;99654.72;10357266;28;20144;-57
2022/03/23 02:31:07;;;;;;;4.70;3.97;;;;;;;3.07;100.00;99650.25;10377894;28;20038;-57
2022/03/23 02:36:11;;;;;;;5.53;4.10;;;;;;;3.06;100.00;99655.66;10375672;28;20077;-55
2022/03/23 02:41:15;;;;;;;4.70;3.80;;;;;;;3.05;100.00;99654.81;10377051;28;20042;-55
2022/03/23 02:46:21;;;;;;;4.47;4.00;;;;;;;3.01;100.00;99647.91;10377057;28;20494;-56
2022/03/23 02:51:24;;;;;;;4.18;3.78;;;;;;;3.01;100.00;99650.56;10378438;28;20042;-52
2022/03/23 03:02:06;;;;;;;4.72;3.97;;;;;;;2.95;100.00;99656.25;10357372;28;20104;-54
2022/03/23 03:07:09;;;;;;;5.65;4.22;;;;;;;2.88;100.00;99654.88;10376975;28;20049;-52
2022/03/23 03:12:29;;;;;;;4.65;4.00;;;;;;;2.81;100.00;99662.31;10373371;23;20057;-85
2022/03/23 03:17:34;;;;;;;4.67;3.90;;;;;;;2.72;100.00;99655.66;10359034;28;20070;-85
2022/03/23 03:22:40;;;;;;;4.63;3.97;;;;;;;2.69;100.00;99657.63;10398919;28;20054;-84
2022/03/23 03:27:45;;;;;;;4.05;3.60;;;;;;;2.65;100.00;99654.25;10362246;28;20068;-86
2022/03/23 03:32:49;;;;;;;6.88;3.92;;;;;;;2.65;100.00;99664.91;10394902;23;20073;-55
2022/03/23 03:37:52;;;;;;;5.18;3.75;;;;;;;2.65;100.00;99670.22;10388400;28;20042;-55
2022/03/23 03:43:01;;;;;;;4.85;4.00;;;;;;;2.65;100.00;99664.03;10394762;28;20048;-55
2022/03/23 03:48:04;;;;;;;4.72;3.88;;;;;;;2.60;100.00;99667.78;10384343;28;20420;-55
2022/03/23 03:53:08;;;;;;;5.47;3.75;;;;;;;2.54;100.00;99676.13;10387082;28;20474;-54
2022/03/23 03:58:14;;;;;;;4.57;3.70;;;;;;;2.49;100.00;99669.31;10395987;28;20049;-53
2022/03/23 04:03:17;;;;;;;4.28;3.80;;;;;;;2.43;100.00;99666.00;10391387;28;20417;-53
2022/03/23 04:08:20;;;;;;;6.10;4.22;;;;;;;2.37;100.00;99674.31;10395256;28;20046;-53
2022/03/23 04:13:25;;;;;;;4.97;4.40;;;;;;;2.24;100.00;99676.72;10396968;28;20146;-52
2022/03/23 04:18:28;;;;;;;6.35;4.07;;;;;;;2.09;100.00;99677.50;10398032;28;20045;-53
2022/03/23 04:23:33;;;;;;;5.22;4.32;;;;;;;2.01;100.00;99683.19;10395132;28;20090;-53
2022/03/23 04:28:37;;;;;;;5.32;4.28;;;;;;;1.82;100.00;99678.78;10385819;28;20490;-51
2022/03/23 04:33:40;;;;;;;7.22;5.13;;;;;;;1.72;100.00;99674.84;10399013;28;20061;-51
2022/03/23 04:38:43;;;;;;;5.10;4.53;;;;;;;1.61;100.00;99674.50;10377161;28;20045;-55
2022/03/23 04:43:48;;;;;;;5.75;5.20;;;;;;;1.51;100.00;99676.75;10372241;28;20133;-53
2022/03/23 04:48:51;;;;;;;6.13;5.22;;;;;;;1.43;100.00;99678.88;10376566;28;20525;-55
2022/03/23 04:53:54;;;;;;;6.38;5.00;;;;;;;1.28;100.00;99680.47;10397455;28;20056;-56
2022/03/23 04:58:59;;;;;;;5.95;5.35;;;;;;;1.17;100.00;99681.84;10389105;28;20083;-58
2022/03/23 05:04:02;;;;;;;7.15;5.57;;;;;;;1.11;100.00;99684.78;10438199;28;20073;-57
2022/03/23 05:09:05;;;;;;;7.50;5.60;;;;;;;1.05;100.00;99690.34;10438783;28;20043;-54
2022/03/23 05:14:09;;;;;;;5.57;4.80;;;;;;;0.97;100.00;99689.84;10431279;28;20056;-54
2022/03/23 05:19:13;;;;;;;5.45;4.95;;;;;;;0.89;100.00;99693.69;10438816;28;20072;-57
2022/03/23 05:24:16;;;;;;;5.13;4.63;;;;;;;0.83;100.00;99691.31;10444223;28;20166;-55
2022/03/23 05:29:20;;;;;;;5.35;4.80;;;;;;;0.80;100.00;99702.06;10439727;28;20056;-54
2022/03/23 05:34:23;;;;;;;4.97;4.47;;;;;;;0.77;100.00;99691.56;10435280;28;20057;-54
2022/03/23 05:39:26;;;;;;;5.45;4.18;;;;;;;0.79;100.00;99689.72;10440618;28;20080;-54
2022/03/23 05:44:31;;;;;;;5.82;4.20;;;;;;;0.82;100.00;99688.75;10444870;28;20128;-54
2022/03/23 05:49:34;;;;;;;5.53;4.18;;;;;;;0.86;100.00;99690.31;10436655;28;20042;-54
2022/03/23 05:54:37;;;;;;;5.60;4.30;;;;;;;0.91;100.00;99701.59;10441861;28;20482;-58
2022/03/23 05:59:41;;;;;;;4.45;4.05;;;;;;;0.97;100.00;99697.81;10441256;28;20120;-57
2022/03/23 06:04:44;;;;;;;5.20;4.55;;;;;;;1.03;100.00;99702.81;10440352;28;20039;-57
2022/03/23 06:09:47;;;;;;;6.97;4.60;;;;;;;1.06;100.00;99698.22;10429111;28;20603;-58
2022/03/23 06:14:52;;;;;;;5.82;4.60;;;;;;;1.11;100.00;99700.72;10444435;28;20061;-54
2022/03/23 06:19:55;;;;;;;4.80;4.30;;;;;;;1.15;100.00;99702.28;10439033;28;20047;-59
2022/03/23 06:24:59;;;;;;;4.95;4.45;;;;;;;1.21;100.00;99703.78;10438685;28;20148;-57
2022/03/23 06:30:04;;;;;;;6.55;5.25;;;;;;;1.25;100.00;99708.03;10439378;28;20148;-57
2022/03/23 06:35:08;;;;;;;5.85;4.60;;;;;;;1.30;100.00;99711.31;10437606;28;20044;-57
2022/03/23 06:40:12;;;;;;;5.10;4.57;;;;;;;1.37;100.00;99712.78;10430925;28;20033;-57
2022/03/23 06:45:22;;;;;;;5.32;4.82;;;;;;;1.45;100.00;99723.06;10411613;28;20073;-59
2022/03/23 06:50:26;;;;;;;5.78;4.32;;;;;;;1.54;100.00;99717.31;10437931;28;20065;-59
2022/03/23 06:55:29;;;;;;;4.82;4.32;;;;;;;1.67;100.00;99719.38;10444645;28;20048;-56
2022/03/23 07:00:35;;;;;;;6.25;5.20;;;;;;;1.78;100.00;99719.72;10432983;28;20049;-59
2022/03/23 07:05:38;;;;;;;4.85;4.32;;;;;;;1.89;100.00;99721.84;10439443;28;20048;-59
2022/03/23 07:10:42;;;;;;;5.80;4.22;;;;;;;2.03;100.00;99721.22;10432450;28;20042;-59
2022/03/23 07:15:47;;;;;;;8.85;4.78;;;;;;;2.15;100.00;99720.59;10435381;28;20045;-59
2022/03/23 07:20:50;;;;;;;7.78;5.00;;;;;;;2.29;100.00;99729.69;10397484;28;20568;-59
2022/03/23 07:25:53;;;;;;;9.10;4.88;;;;;;;2.39;100.00;99724.75;10432897;28;20091;-57
2022/03/23 07:30:58;;;;;;;6.55;4.57;;;;;;;2.54;100.00;99726.66;10433668;28;20052;-59
2022/03/23 07:36:02;;;;;;;6.28;4.70;;;;;;;2.74;100.00;99727.44;10416943;28;20528;-59
2022/03/23 07:41:06;;;;;;;5.60;4.47;;;;;;;2.93;100.00;99722.91;10433188;28;20061;-59
2022/03/23 07:46:10;;;;;;;4.45;4.00;;;;;;;3.19;100.00;99733.94;10434418;28;20067;-60
2022/03/23 07:51:13;;;;;;;4.82;3.95;;;;;;;3.49;100.00;99738.56;10434452;28;20413;-58
2022/03/23 07:56:17;;;;;;;3.85;3.45;;;;;;;3.76;100.00;99747.78;10427102;28;20460;-58
2022/03/23 08:01:21;;;;;;;5.50;3.90;;;;;;;3.96;100.00;99739.53;10433886;28;20037;-58
2022/03/23 08:06:26;;;;;;;5.93;3.55;;;;;;;4.21;100.00;99735.47;10425909;28;20158;-57
2022/03/23 08:11:29;;;;;;;3.90;3.50;;;;;;;4.50;100.00;99732.06;10422564;28;20044;-55
2022/03/23 08:16:34;;;;;;;4.90;3.92;;;;;;;4.68;100.00;99735.44;10445123;28;20147;-57
2022/03/23 08:21:37;;;;;;;8.55;3.90;;;;;;;4.84;100.00;99740.72;10444456;28;20037;-58
2022/03/23 08:26:41;;;;;;;5.47;4.40;;;;;;;5.14;100.00;99745.19;10435225;28;20064;-59
2022/03/23 08:31:45;;;;;;;6.88;3.95;;;;;;;5.35;100.00;99735.00;10437811;28;20136;-55
2022/03/23 08:36:49;;;;;;;5.30;4.50;;;;;;;5.63;100.00;99738.59;10448092;28;20051;-55
2022/03/23 08:41:52;;;;;;;8.38;4.97;;;;;;;5.82;100.00;99739.13;10436787;28;20053;-55
2022/03/23 08:46:56;;;;;;;5.47;4.90;;;;;;;6.07;100.00;99732.22;10389846;28;20520;-59
2022/03/23 08:52:00;;;;;;;6.07;4.97;;;;;;;6.27;100.00;99728.22;10439909;28;20048;-57
2022/03/23 08:57:03;;;;;;;7.97;4.80;;;;;;;6.56;98.52;99735.28;10439863;28;20413;-56
2022/03/23 09:02:08;;;;;;;5.75;4.50;;;;;;;6.71;91.59;99725.34;10425689;28;20038;-57
2022/03/23 09:07:11;;;;;;;7.15;4.40;;;;;;;6.98;92.35;99717.25;10429650;28;20111;-58
2022/03/23 09:12:15;;;;;;;5.90;4.20;;;;;;;7.29;88.83;99717.78;10420103;23;20185;-77
2022/03/23 09:17:19;;;;;;;5.78;4.43;;;;;;;7.59;80.46;99719.22;10413659;28;20412;-78
2022/03/23 09:22:23;;;;;;;7.13;4.30;;;;;;;7.78;81.72;99716.09;10431318;28;20493;-77
2022/03/23 09:27:26;;;;;;;8.82;4.45;;;;;;;8.12;81.89;99712.75;10433201;28;20540;-77
2022/03/23 09:32:31;;;;;;;6.15;4.68;;;;;;;8.38;79.61;99718.84;10417802;28;20069;-79
2022/03/23 09:37:50;;;;;;;5.10;4.50;;;;;;;8.62;79.55;99710.81;10408812;28;20451;-79
2022/03/23 09:42:55;;;;;;;5.25;4.60;;;;;;;8.96;73.75;99709.19;10437132;28;20057;-78
2022/03/23 09:48:01;;;;;;;5.15;4.68;;;;;;;9.31;73.94;99700.19;10396692;28;20057;-78
2022/03/23 09:53:05;;;;;;;5.45;4.60;;;;;;;9.65;71.24;99697.50;10397745;28;20055;-78
2022/03/23 09:58:09;;;;;;;6.70;4.80;;;;;;;9.94;70.60;99710.41;10414125;28;20099;-78
2022/03/23 10:03:51;;;;;;;6.43;5.22;;;;;;;10.29;67.64;99702.13;10416323;28;20038;-78
2022/03/23 10:09:11;;;;;;;5.00;4.50;;;;;;;10.52;65.48;99702.06;10404039;28;20046;-78
2022/03/23 10:14:47;;;;;;;8.50;5.47;;;;;;;10.81;64.13;99705.97;10395085;28;20053;-77
2022/03/23 10:19:51;;;;;;;5.43;4.75;;;;;;;11.03;62.30;99703.13;10371866;28;20053;-77
2022/03/23 10:24:56;;;;;;;5.55;4.70;;;;;;;11.26;61.08;99705.66;10394110;28;20125;-77
2022/03/23 10:29:59;;;;;;;6.97;4.43;;;;;;;11.57;59.30;99702.97;10400043;28;20064;-77
2022/03/23 10:35:05;;;;;;;5.00;4.50;;;;;;;11.86;55.90;99697.69;10400888;28;20049;-77
2022/03/23 10:40:12;;;;;;;9.27;4.70;;;;;;;12.08;56.08;99693.06;10411553;28;20053;-76
2022/03/23 10:45:18;;;;;;;11.57;4.65;;;;;;;12.36;53.28;99692.38;10386085;28;20057;-77
2022/03/23 10:50:24;;;;;;;5.13;4.60;;;;;;;12.58;54.24;99689.38;10398970;28;20077;-77
2022/03/23 10:55:30;;;;;;;6.72;4.85;;;;;;;12.76;52.63;99678.69;10359295;28;20057;-78
2022/03/23 11:00:34;;;;;;;7.53;4.50;;;;;;;12.99;51.94;99672.94;10383470;28;20054;-77
2022/03/23 11:05:40;;;;;;;5.72;4.43;;;;;;;13.21;50.32;99669.06;10393545;28;20053;-79
2022/03/23 11:16:08;;;;;;;6.22;4.60;;;;;;;13.58;48.89;99655.69;10368370;28;20089;-78
2022/03/23 11:21:11;;;;;;;4.72;4.30;;;;;;;13.77;48.30;99654.69;10382143;28;20053;-78
2022/03/23 11:26:16;;;;;;;5.68;4.57;;;;;;;13.77;46.74;99655.56;10389474;28;20041;-78
2022/03/23 11:31:19;;;;;;;4.40;3.88;;;;;;;13.98;46.23;99641.75;10376416;28;20053;-78
2022/03/23 11:36:25;;;;;;;7.13;4.20;;;;;;;14.25;45.18;99631.00;10381156;28;20049;-77
2022/03/23 11:41:30;;;;;;;5.18;4.05;;;;;;;14.33;43.20;99629.22;10374648;28;20058;-78
2022/03/23 11:46:33;;;;;;;5.88;3.78;;;;;;;14.48;44.21;99624.09;10394550;28;20405;-79
2022/03/23 11:52:01;;;;;;;4.35;3.50;;;;;;;14.67;40.57;99622.22;10399565;28;20038;-79
2022/03/23 11:57:06;;;;;;;6.30;3.90;;;;;;;14.86;42.16;99606.75;10394087;28;20041;-78
2022/03/23 12:02:09;;;;;;;5.20;3.20;;;;;;;15.06;42.27;99605.50;10394647;28;20141;-80
2022/03/23 12:07:12;;;;;;;4.18;3.35;;;;;;;15.25;40.78;99603.56;10416365;28;20045;-82
2022/03/23 12:12:28;;;;;;;3.85;3.20;;;;;;;15.38;38.11;99593.09;10399960;28;20148;-81
2022/03/23 12:17:32;;;;;;;4.82;3.63;;;;;;;15.58;39.38;99590.13;10407173;28;20103;-80
2022/03/23 12:23:12;;;;;;;3.38;3.08;;;;;;;15.78;36.35;99576.25;10421198;28;20037;-80
2022/03/23 12:28:26;;;;;;;5.90;3.10;;;;;;;16.19;37.93;99576.31;10425133;28;20041;-80
2022/03/23 12:33:31;;;;;;;5.22;3.03;;;;;;;16.25;36.52;99567.50;10432451;28;20469;-78
2022/03/23 12:38:34;;;;;;;3.65;3.22;;;;;;;16.51;36.49;99577.34;10404974;28;20060;-77
2022/03/23 12:43:42;;;;;;;5.57;3.20;;;;;;;16.77;36.49;99570.81;10417905;28;20039;-79
2022/03/23 12:59:51;;;;;;;7.78;3.30;;;;;;;17.52;36.26;99561.41;10431968;28;20497;-80
2022/03/23 13:04:56;;;;;;;4.50;3.28;;;;;;;17.61;34.54;99553.16;10396520;28;20056;-77
2022/03/23 13:10:13;;;;;;;4.75;3.70;;;;;;;17.94;35.23;99559.28;10417131;28;20573;-79
2022/03/23 13:15:21;;;;;;;5.72;4.13;;;;;;;17.56;34.61;99561.88;10426866;28;20066;-76
2022/03/23 13:20:31;;;;;;;7.85;4.40;;;;;;;17.50;34.72;99555.28;10452908;28;20092;-77
2022/03/23 13:25:35;;;;;;;5.88;3.97;;;;;;;17.99;35.16;99551.41;10412618;28;20072;-78
2022/03/23 13:30:40;;;;;;;6.38;4.03;;;;;;;18.38;34.68;99544.13;10392730;28;20099;-77
2022/03/23 13:35:44;;;;;;;4.30;3.75;;;;;;;18.06;34.00;99537.91;10410799;28;20048;-77
2022/03/23 13:46:10;;;;;;;5.13;3.50;;;;;;;18.73;33.09;99532.69;10411506;28;20049;-78
2022/03/23 13:51:13;;;;;;;4.50;3.42;;;;;;;19.08;32.71;99522.94;10412678;28;20095;-76
2022/03/23 13:56:17;;;;;;;6.10;3.90;;;;;;;19.20;32.42;99517.81;10395876;28;20213;-78
2022/03/23 14:01:23;;;;;;;4.78;3.75;;;;;;;19.27;31.54;99523.38;10409321;28;20045;-77
2022/03/23 14:06:29;;;;;;;5.57;4.15;;;;;;;19.03;31.45;99525.38;10426003;23;21709;-58
2022/03/23 14:11:59;;;;;;;8.60;4.30;;;;;;;19.57;32.13;99515.13;10446776;28;20097;-56
2022/03/23 14:17:15;;;;;;;;;;;;;;;20.20;31.72;99511.75;10415092;28;20557;-51
2022/03/23 14:22:20;;;;;;;7.07;3.85;;;;;;;20.13;31.67;99516.31;10408649;28;19928;-57
2022/03/23 14:27:26;;;;;;;6.18;4.25;;;;;;;20.03;30.46;99502.97;10392890;28;20399;-54
2022/03/23 14:32:33;;;;;;;6.18;4.03;;;;;;;20.24;31.60;99503.97;10412947;28;20045;-56
2022/03/23 14:37:37;;;;;;;6.28;4.10;;;;;;;20.38;30.97;99510.44;10392557;28;20580;-56
2022/03/23 14:42:40;;;;;;;5.85;3.92;;;;;;;20.58;30.75;99495.00;10402829;28;20760;-53
2022/03/23 14:47:48;;;;;;;5.28;3.95;;;;;;;20.83;30.06;99485.47;10408663;28;20071;-54
2022/03/23 14:52:51;;;;;;;5.07;3.90;;;;;;;21.01;29.44;99482.19;10402413;28;20112;-56
2022/03/23 14:57:55;;;;;;;5.53;4.00;;;;;;;21.00;30.11;99483.22;10407639;28;20472;-53
2022/03/23 15:02:59;;;;;;;5.28;3.72;;;;;;;21.03;29.57;99480.09;10422083;28;20043;-55
2022/03/23 15:13:23;;;;;;;7.75;3.85;;;;;;;20.62;29.04;99479.88;10436096;23;20099;-63
2022/03/23 15:18:28;;;;;;;8.75;4.40;;;;;;;20.59;29.63;99485.72;10442003;28;20087;-63
2022/03/23 15:23:31;;;;;;;5.70;4.20;;;;;;;20.35;29.60;99470.59;10458955;28;20064;-63
2022/03/23 15:28:34;;;;;;;5.88;3.95;;;;;;;20.35;29.39;99472.50;10445997;28;20053;-63
2022/03/23 15:33:39;;;;;;;5.10;4.50;;;;;;;20.31;28.84;99472.06;10463283;28;20508;-63
2022/03/23 15:38:43;;;;;;;6.60;3.97;;;;;;;20.37;28.69;99473.16;10444253;28;20041;-63
2022/03/23 15:43:48;;;;;;;6.18;3.92;;;;;;;20.46;29.47;99469.22;10464886;28;20086;-63
2022/03/23 15:48:56;;;;;;;4.80;4.20;;;;;;;20.36;28.80;99468.72;10470732;28;20048;-63
2022/03/23 15:54:00;;;;;;;4.22;3.83;;;;;;;20.32;28.86;99462.81;10446309;28;20033;-63
2022/03/23 15:59:03;;;;;;;6.85;3.88;;;;;;;20.20;29.27;99470.69;10458601;28;20051;-64
2022/03/23 16:04:07;;;;;;;7.25;3.85;;;;;;;20.04;29.37;99468.28;10472893;28;20037;-63
2022/03/23 16:09:10;;;;;;;5.28;3.97;;;;;;;19.96;29.13;99469.25;10461403;28;20068;-63
2022/03/23 16:14:14;;;;;;;4.30;3.90;;;;;;;19.94;30.32;99477.63;10441269;28;20041;-63
2022/03/23 16:19:18;;;;;;;7.10;4.10;;;;;;;19.84;30.44;99471.63;10465440;28;20128;-63
2022/03/23 16:24:21;;;;;;;7.03;4.30;;;;;;;19.72;30.86;99465.84;10467154;28;20531;-62
2022/03/23 16:29:25;;;;;;;7.43;4.88;;;;;;;19.58;30.90;99467.56;10469352;28;20416;-60
2022/03/23 16:34:30;;;;;;;6.63;4.65;;;;;;;19.26;31.22;99469.75;10464363;28;20124;-58
2022/03/23 16:39:34;;;;;;;6.90;4.40;;;;;;;19.03;31.48;99465.28;10462990;28;20171;-53
2022/03/23 16:44:37;;;;;;;6.70;5.00;;;;;;;18.70;31.63;99465.66;10463343;28;20500;-55
2022/03/23 16:49:41;;;;;;;6.53;5.00;;;;;;;18.47;32.30;99472.06;10459711;28;20048;-60
2022/03/23 16:54:45;;;;;;;7.90;5.03;;;;;;;18.22;32.17;99465.16;10454291;28;20047;-66
2022/03/23 16:59:48;;;;;;;7.35;5.03;;;;;;;18.07;32.31;99470.59;10456831;28;20068;-61
2022/03/23 17:15:34;;;;;;;6.28;4.45;;;;;;;17.04;32.90;99476.19;10449228;28;20336;-59
2022/03/23 17:20:42;;;;;;;5.07;4.55;;;;;;;16.65;32.73;99477.84;10464087;28;20041;-60
2022/03/23 17:25:46;;;;;;;9.65;4.70;;;;;;;16.20;32.82;99482.00;10454554;28;20037;-57
2022/03/23 17:30:49;;;;;;;7.55;5.07;;;;;;;15.86;33.12;99484.75;10440944;28;20334;-55
2022/03/23 17:35:53;;;;;;;5.55;4.70;;;;;;;15.37;34.17;99485.50;10458687;28;20041;-60
2022/03/23 17:40:59;;;;;;;5.35;4.85;;;;;;;15.07;34.49;99485.06;10456797;28;20045;-59
2022/03/23 17:46:02;;;;;;;5.90;5.25;;;;;;;14.74;34.24;99486.78;10460796;28;20124;-54
2022/03/23 17:51:07;;;;;;;9.18;5.70;;;;;;;14.48;34.75;99482.22;10460293;28;20076;-54
2022/03/23 17:56:10;;;;;;;7.88;5.60;;;;;;;14.21;35.41;99491.34;10460014;28;20131;-59
2022/03/23 18:01:13;;;;;;;7.55;5.95;;;;;;;14.00;35.50;99487.16;10450882;28;20135;-57
2022/03/23 18:06:18;;;;;;;6.60;6.00;;;;;;;13.81;36.64;99489.03;10462553;28;20041;-56
2022/03/23 18:11:21;;;;;;;8.30;5.97;;;;;;;13.67;37.20;99497.72;10456915;28;20060;-58
2022/03/23 18:16:24;;;;;;;7.78;5.95;;;;;;;13.50;37.75;99497.53;10461961;28;20429;-58
2022/03/23 18:21:28;;;;;;;8.23;6.63;;;;;;;13.38;38.28;99506.84;10443237;28;20053;-59
2022/03/23 18:26:32;;;;;;;9.40;6.95;;;;;;;13.26;38.47;99511.63;10460271;28;20037;-57
2022/03/23 18:31:35;;;;;;;7.68;6.88;;;;;;;13.17;38.90;99512.56;10461006;28;20075;-58
2022/03/23 18:36:40;;;;;;;7.22;6.45;;;;;;;13.09;39.02;99516.00;10452065;28;20492;-57
2022/03/23 18:41:43;;;;;;;7.43;6.68;;;;;;;12.99;39.26;99515.22;10435239;28;20519;-64
2022/03/23 18:46:46;;;;;;;7.90;6.88;;;;;;;12.77;40.80;99517.28;10463938;28;20045;-61
2022/03/23 18:51:51;;;;;;;8.98;7.75;;;;;;;12.52;41.70;99530.47;10437152;28;20048;-60
2022/03/23 18:56:54;;;;;;;10.07;7.32;;;;;;;12.26;42.12;99524.81;10464462;28;20526;-58
2022/03/23 19:01:57;;;;;;;9.63;8.18;;;;;;;12.00;42.71;99536.22;10465820;28;20489;-61
2022/03/23 19:07:01;;;;;;;9.77;8.52;;;;;;;11.59;44.19;99528.22;10445723;28;20056;-62
2022/03/23 19:12:05;;;;;;;11.93;8.23;;;;;;;11.45;43.74;99531.34;10457272;28;20040;-60
2022/03/23 19:17:09;;;;;;;10.27;8.00;;;;;;;11.24;44.55;99534.97;10464292;28;20080;-60
2022/03/23 19:22:16;;;;;;;9.68;7.60;;;;;;;11.20;43.58;99537.09;10456512;28;20147;-60
2022/03/23 19:27:19;;;;;;;8.57;7.68;;;;;;;11.10;43.75;99530.84;10424629;28;20045;-58
2022/03/23 19:32:22;;;;;;;8.75;7.85;;;;;;;10.97;44.33;99530.22;10446044;28;20063;-61
2022/03/23 19:37:28;;;;;;;9.13;8.00;;;;;;;10.82;44.89;99537.84;10458874;28;20037;-60
2022/03/23 19:42:33;;;;;;;12.50;8.20;;;;;;;10.71;45.11;99542.31;10466461;28;20045;-60
2022/03/23 19:47:37;;;;;;;11.30;8.63;;;;;;;10.58;45.93;99547.06;10460286;28;20045;-58
2022/03/23 19:53:06;;;;;;;9.52;8.57;;;;;;;10.41;47.34;99541.28;10458389;28;20041;-55
2022/03/23 19:58:09;;;;;;;10.73;9.15;;;;;;;10.24;47.17;99542.72;10468777;28;20041;-53
2022/03/23 20:03:14;;;;;;;9.32;8.38;;;;;;;10.08;47.88;99551.25;10446435;28;20145;-57
2022/03/23 20:08:19;;;;;;;12.48;8.68;;;;;;;9.93;47.90;99547.19;10470124;28;20124;-57
2022/03/23 20:13:26;;;;;;;11.15;8.68;;;;;;;9.75;48.08;99555.81;10464142;28;20120;-56
2022/03/23 20:18:29;;;;;;;11.63;8.50;;;;;;;9.69;48.27;99542.88;10457866;28;20113;-56
2022/03/23 20:23:34;;;;;;;9.48;8.48;;;;;;;9.60;49.01;99547.19;10447121;28;20055;-57
2022/03/23 20:28:37;;;;;;;9.23;8.15;;;;;;;9.51;48.69;99545.28;10448333;28;20163;-57
2022/03/23 20:34:05;;;;;;;13.23;8.48;;;;;;;9.46;49.07;99542.97;10448243;28;20043;-57
2022/03/23 20:39:10;;;;;;;8.73;7.70;;;;;;;9.37;49.18;99547.25;10464676;28;20045;-57
2022/03/23 20:44:13;;;;;;;10.68;7.90;;;;;;;9.26;48.92;99547.28;10442739;28;20063;-56
2022/03/23 20:49:16;;;;;;;9.20;8.25;;;;;;;9.12;49.97;99550.22;10458362;28;20052;-56
2022/03/23 20:54:20;;;;;;;12.52;7.85;;;;;;;9.02;49.56;99547.41;10434365;28;20132;-57
2022/03/23 20:59:23;;;;;;;9.13;7.68;;;;;;;8.96;49.73;99553.31;10460184;28;20460;-58
2022/03/23 21:04:26;;;;;;;10.63;8.02;;;;;;;8.88;50.16;99546.69;10472179;28;20048;-58
2022/03/23 21:09:31;;;;;;;8.93;7.97;;;;;;;8.82;50.25;99549.03;10447872;28;20049;-57
2022/03/23 21:14:33;;;;;;;9.50;8.02;;;;;;;8.69;51.11;99562.56;10440125;28;20045;-57
2022/03/23 21:19:37;;;;;;;8.50;7.57;;;;;;;8.40;52.52;99560.31;10472441;23;20144;-81
2022/03/23 21:24:41;;;;;;;9.98;6.80;;;;;;;8.37;51.03;99556.03;10474465;28;20068;-77
2022/03/23 21:29:44;;;;;;;12.40;7.22;;;;;;;8.37;50.91;99563.25;10469340;28;20156;-80
2022/03/23 21:34:47;;;;;;;8.30;7.28;;;;;;;8.36;50.23;99558.84;10453579;28;20139;-80
2022/03/23 21:39:51;;;;;;;8.88;6.85;;;;;;;8.33;50.47;99555.41;10465343;28;20540;-78
2022/03/23 21:44:54;;;;;;;10.35;7.30;;;;;;;8.33;50.33;99555.41;10454734;28;20055;-80
2022/03/23 21:49:57;;;;;;;11.32;6.95;;;;;;;8.27;51.70;99566.63;10469792;28;20159;-79
2022/03/23 21:55:01;;;;;;;9.20;7.75;;;;;;;8.28;50.96;99557.63;10448407;28;20523;-78
2022/03/23 22:00:07;;;;;;;11.23;8.30;;;;;;;8.29;53.04;99555.78;10468528;28;20131;-79
2022/03/23 22:05:14;;;;;;;11.63;7.95;;;;;;;8.25;53.52;99546.22;10453627;28;20049;-79
2022/03/23 22:10:19;;;;;;;9.85;7.45;;;;;;;8.21;53.61;99553.66;10466409;28;20053;-80
2022/03/23 22:15:22;;;;;;;9.40;8.50;;;;;;;8.14;54.37;99555.13;10464029;28;20059;-80
2022/03/23 22:20:25;;;;;;;9.18;8.18;;;;;;;8.10;54.54;99548.28;10439074;28;20523;-80
2022/03/23 22:25:29;;;;;;;9.73;8.40;;;;;;;8.01;54.33;99555.19;10438575;28;20053;-78
2022/03/23 22:30:33;;;;;;;10.07;8.43;;;;;;;7.91;54.72;99555.06;10437565;28;20045;-79
2022/03/23 22:35:36;;;;;;;10.23;8.18;;;;;;;7.81;55.62;99554.03;10459378;28;20049;-79
2022/03/23 22:40:40;;;;;;;11.10;8.63;;;;;;;7.77;55.83;99549.88;10436202;28;20049;-77
2022/03/23 22:45:43;;;;;;;10.57;8.82;;;;;;;7.70;56.19;99542.25;10438594;28;20045;-79
2022/03/23 22:50:47;;;;;;;13.20;8.98;;;;;;;7.64;56.13;99547.25;10447093;28;20063;-79
2022/03/23 22:55:51;;;;;;;11.20;8.30;;;;;;;7.50;55.88;99549.16;10450826;28;20056;-78
2022/03/23 23:01:10;;;;;;;10.55;7.75;;;;;;;7.36;56.53;99542.09;10447771;28;20135;-80
2022/03/23 23:06:15;;;;;;;8.07;7.28;;;;;;;7.22;56.28;99539.59;10466221;28;20059;-80
2022/03/23 23:11:21;;;;;;;12.05;8.68;;;;;;;7.13;56.77;99545.59;10449386;28;20045;-79
2022/03/23 23:16:24;;;;;;;11.93;9.05;;;;;;;7.04;58.79;99539.13;10457808;28;20099;-80
2022/03/23 23:21:27;;;;;;;10.18;9.10;;;;;;;6.95;60.69;99535.28;10460212;28;20048;-78
2022/03/23 23:26:32;;;;;;;10.82;8.93;;;;;;;6.82;63.30;99539.78;10456410;28;20125;-79
2022/03/23 23:31:35;;;;;;;9.88;8.70;;;;;;;6.71;66.24;99537.88;10461931;28;20131;-79
2022/03/23 23:36:44;;;;;;;10.30;8.40;;;;;;;6.58;70.80;99538.75;10449204;28;20049;-79
2022/03/23 23:41:48;;;;;;;12.70;9.00;;;;;;;6.47;74.33;99541.31;10445920;28;20143;-81
2022/03/23 23:46:52;;;;;;;11.57;9.15;;;;;;;6.35;77.13;99535.00;10442776;28;20041;-78
2022/03/23 23:51:55;;;;;;;12.20;9.55;;;;;;;6.28;75.12;99533.72;10466493;28;20128;-80
2022/03/23 23:56:59;;;;;;;9.80;8.80;;;;;;;6.17;75.84;99527.28;10445945;28;20049;-80
